Current | Forecast
Updated: 12:00 PM JST on November 22, 2017
Observed at Miyazaki Airport, Japan
Temperature 55°F
Humidity 94%
Dew Point 54°F
Wind WNW at 6 mph
Pressure 30.01 in (Falling)
Conditions Light Rain Showers
Visibility 6.2 miles
UV 3 out of 16
Clouds (FEW) : 2000 ft
Scattered Clouds (SCT) : 2500 ft
Mostly Cloudy (BKN) : 3500 ft
Yesterday's Maximum 57°F
Yesterday's Minimum 34°F approx.
Yesterday's Heating Degree Days 20 approx.
Sunrise6:48 AM JST
Sunset5:11 PM JST
Moon Rise9:38 AM JST
Moon Set8:13 PM JST
Moon PhaseMoon Phase
Waxing Crescent
Raw METARMETAR RJFM 220300Z 30005KT 260V330 9999 -SHRA FEW020 SCT025 BKN035 13/12 Q1016


Monday
. High: 70° F.
Tuesday
. High: 80° F.
Wednesday
. High: 71° F.
Thursday
. High: 71° F.
Friday
. High: 67° F.
Saturday
. High: 75° F.
Sunday
. High: 75° F.
Monday
. High: 75° F.

Units: English | Metric

Find the Weather for any City, State or Zipcode, or Country:

U.S. State List | Severe Weather | Tropical Storms | Ski Conditions
United States | Canada | Central America | South America | Asia | Europe | Australia | Africa | Islands

Weather Underground

© Copyright 2017
The Weather Company, LLC